Beaverton, MI (48612)

9:27 AM EDT on September 30, 2014 (GMT -0400)
East shore of Sanford lake. | Change Station
CLOSE
Current Station
Personal Weather Station
Location: Sanford, MI
Elevation: 639 ft
Nearby Weather Stations

Elev 639 ft 43.70 °N, 84.38 °W | Updated 13 seconds ago

Overcast
Overcast
49.1 °F
Feels Like 49 °F
N
0.0
Wind Variable Wind from NNE
Gusts 0.0 mph

Today
High -- | Low -- °F
--% Chance of Precip.
Yesterday
High -- | Low -- °F
Precip. -- in
7:34 AM 7:20 PM
Waxing Crescent, 36% visible
Pressure 30.00 in
Visibility 10.0 miles
Clouds Scattered Clouds 1200 ft
Scattered Clouds 1600 ft
Overcast 4000 ft
Windchill 49 °F
Dew Point 43 °F
Humidity 81%
Rainfall 0.00 in
Snow Depth Not available.
UV 0 out of 12
Pollen 2.00 out of 12
Ozone Good
PM2.5 Good
Flu Activity Not available.
METAR KIKW 301312Z AUTO 35005KT 10SM SCT012 SCT016 OVC040 10/08 A3000 RMK AO2 T01000075

More Conditions Fewer Conditions

Pressure 30.00 in
Visibility 10.0 miles
Clouds Scattered Clouds 1200 ft
Scattered Clouds 1600 ft
Overcast 4000 ft
Windchill 49 °F
Dew Point 43 °F
Humidity 81%
Rainfall 0.00 in
Snow Depth Not available.
UV 0 out of 12
Pollen 2.00 out of 12
Ozone Good
PM2.5 Good
Flu Activity Not available.
METAR KIKW 301312Z AUTO 35005KT 10SM SCT012 SCT016 OVC040 10/08 A3000 RMK AO2 T01000075

More Conditions Fewer Conditions

Nowcast | as of 9:00 am EDT on September 30, 2014

At 10 am...cloudy. Periods of drizzle. Temperature 48. North winds 6 mph. At 12 PM...cloudy. Periods of drizzle. Temperature 51. North winds 7 mph. At 2 PM...cloudy. Temperature 54. North winds 6 mph. At 4 PM...cloudy. Temperature 55. North winds 6 mph.

×

10-Day Weather Forecast

Almanac

Astronomy

Sep. 30, 2014 Rise Set
Actual Time 7:34 AM EDT 7:20 PM EDT
Civil Twilight 7:05 AM EDT 7:49 PM EDT
Nautical Twilight 6:31 AM EDT 8:22 PM EDT
Astronomical Twilight 5:58 AM EDT 8:56 PM EDT
Moon 1:50 PM EDT 11:40 PM EDT
Length of Visible Light 12h 43m
Length of Day
11h 46m
Tomorrow will be 2m 59s shorter.
Waxing Crescent, 36% of the Moon is Illuminated
Today
Waxing Crescent
Oct 1
First Quarter
Oct 8
Full
Oct 15
Last Quarter
Oct 23
New

Today's Extremes

State Highs State Lows

Community

WunderPhotos

Upload Photos

1,757,637 photos uploaded!

Nearby

Air Quality

  Air Quality AQ Index Pollutant
Yesterday Good
PM2.5
Yesterday Good
OZONE
Current Good
OZONE
Current Good
PM2.5
Tuesday Good
OZONE
Tuesday Good
PM2.5
Wednesday Good
OZONE
Wednesday Good
PM2.5
Thursday Good
OZONE
Thursday Good
PM2.5
Friday Good
OZONE
Friday Good
PM2.5
Saturday Good
OZONE
Saturday Good
PM2.5

Snow Depth

Station Depth Elevation
No new snow has been reported.

Earthquake Activity

City Distance Mag. Time & Date
No recent earthquake activity has been reported nearby.
Minimum magnitude displayed is 2.5.

Coastal Water Temperatures

Place Temperature
Harbor Beach, MI 63.0 °F

Nearby Weather Stations